sensor_id;sensor_type;location;lat;lon;timestamp;temperature;humidity
4520;DHT22;2272;49.226;8.108;2023-04-03T00:01:27;2.60;99.90
4520;DHT22;2272;49.226;8.108;2023-04-03T00:03:55;2.50;99.90
4520;DHT22;2272;49.226;8.108;2023-04-03T00:06:22;2.40;99.90
4520;DHT22;2272;49.226;8.108;2023-04-03T00:08:52;2.30;99.90
4520;DHT22;2272;49.226;8.108;2023-04-03T00:11:19;2.20;99.90
4520;DHT22;2272;49.226;8.108;2023-04-03T00:13:47;2.10;99.90
4520;DHT22;2272;49.226;8.108;2023-04-03T00:16:13;1.90;99.90
4520;DHT22;2272;49.226;8.108;2023-04-03T00:18:41;1.90;99.90
4520;DHT22;2272;49.226;8.108;2023-04-03T00:21:09;1.80;99.90
4520;DHT22;2272;49.226;8.108;2023-04-03T00:23:36;1.70;99.90
4520;DHT22;2272;49.226;8.108;2023-04-03T00:28:31;1.60;99.90
4520;DHT22;2272;49.226;8.108;2023-04-03T00:30:58;1.50;99.90
4520;DHT22;2272;49.226;8.108;2023-04-03T00:33:25;1.50;99.90
4520;DHT22;2272;49.226;8.108;2023-04-03T00:35:51;1.50;99.90
4520;DHT22;2272;49.226;8.108;2023-04-03T00:38:18;1.50;99.90
4520;DHT22;2272;49.226;8.108;2023-04-03T00:40:47;1.50;99.90
4520;DHT22;2272;49.226;8.108;2023-04-03T00:43:17;1.40;99.90
4520;DHT22;2272;49.226;8.108;2023-04-03T00:45:45;1.40;99.90
4520;DHT22;2272;49.226;8.108;2023-04-03T00:48:15;1.30;99.90
4520;DHT22;2272;49.226;8.108;2023-04-03T00:50:44;1.30;99.90
4520;DHT22;2272;49.226;8.108;2023-04-03T00:53:14;1.30;99.90
4520;DHT22;2272;49.226;8.108;2023-04-03T00:58:10;1.30;99.90
4520;DHT22;2272;49.226;8.108;2023-04-03T01:00:42;1.30;99.90
4520;DHT22;2272;49.226;8.108;2023-04-03T01:03:11;1.30;99.90
4520;DHT22;2272;49.226;8.108;2023-04-03T01:05:38;1.30;99.90
4520;DHT22;2272;49.226;8.108;2023-04-03T01:08:06;1.30;99.90
4520;DHT22;2272;49.226;8.108;2023-04-03T01:10:32;1.30;99.90
4520;DHT22;2272;49.226;8.108;2023-04-03T01:13:00;1.30;99.90
4520;DHT22;2272;49.226;8.108;2023-04-03T01:15:28;1.30;99.90
4520;DHT22;2272;49.226;8.108;2023-04-03T01:17:59;1.30;99.90
4520;DHT22;2272;49.226;8.108;2023-04-03T01:23:57;1.30;99.90
4520;DHT22;2272;49.226;8.108;2023-04-03T01:26:25;1.30;99.90
4520;DHT22;2272;49.226;8.108;2023-04-03T01:28:54;1.30;99.90
4520;DHT22;2272;49.226;8.108;2023-04-03T01:31:25;1.20;99.90
4520;DHT22;2272;49.226;8.108;2023-04-03T01:33:54;1.20;99.90
4520;DHT22;2272;49.226;8.108;2023-04-03T01:36:23;1.10;99.90
4520;DHT22;2272;49.226;8.108;2023-04-03T01:38:50;1.10;99.90
4520;DHT22;2272;49.226;8.108;2023-04-03T01:41:17;1.10;99.90
4520;DHT22;2272;49.226;8.108;2023-04-03T01:43:46;1.10;99.90
4520;DHT22;2272;49.226;8.108;2023-04-03T01:46:13;1.10;99.90
4520;DHT22;2272;49.226;8.108;2023-04-03T01:48:40;1.10;99.90
4520;DHT22;2272;49.226;8.108;2023-04-03T01:51:08;1.10;99.90
4520;DHT22;2272;49.226;8.108;2023-04-03T01:53:35;1.00;99.90
4520;DHT22;2272;49.226;8.108;2023-04-03T01:56:02;1.00;99.90
4520;DHT22;2272;49.226;8.108;2023-04-03T01:58:28;1.00;99.90
4520;DHT22;2272;49.226;8.108;2023-04-03T02:00:55;0.90;99.90
4520;DHT22;2272;49.226;8.108;2023-04-03T02:03:22;0.90;99.90
4520;DHT22;2272;49.226;8.108;2023-04-03T02:05:49;0.90;99.90
4520;DHT22;2272;49.226;8.108;2023-04-03T02:08:18;0.80;99.90
4520;DHT22;2272;49.226;8.108;2023-04-03T02:10:47;0.80;99.90
4520;DHT22;2272;49.226;8.108;2023-04-03T02:13:13;0.80;99.90
4520;DHT22;2272;49.226;8.108;2023-04-03T02:15:40;0.70;99.90
4520;DHT22;2272;49.226;8.108;2023-04-03T02:18:07;0.60;99.90
4520;DHT22;2272;49.226;8.108;2023-04-03T02:20:34;0.60;99.90
4520;DHT22;2272;49.226;8.108;2023-04-03T02:23:01;0.50;99.90
4520;DHT22;2272;49.226;8.108;2023-04-03T02:25:30;0.50;99.90
4520;DHT22;2272;49.226;8.108;2023-04-03T02:27:57;0.50;99.90
4520;DHT22;2272;49.226;8.108;2023-04-03T02:30:24;0.40;99.90
4520;DHT22;2272;49.226;8.108;2023-04-03T02:32:51;0.40;99.90
4520;DHT22;2272;49.226;8.108;2023-04-03T02:35:18;0.30;99.90
4520;DHT22;2272;49.226;8.108;2023-04-03T02:37:45;0.40;99.90
4520;DHT22;2272;49.226;8.108;2023-04-03T02:40:12;0.40;99.90
4520;DHT22;2272;49.226;8.108;2023-04-03T02:42:40;0.40;99.90
4520;DHT22;2272;49.226;8.108;2023-04-03T02:45:07;0.40;99.90
4520;DHT22;2272;49.226;8.108;2023-04-03T02:47:34;0.40;99.90
4520;DHT22;2272;49.226;8.108;2023-04-03T02:50:01;0.50;99.90
4520;DHT22;2272;49.226;8.108;2023-04-03T02:52:27;0.50;99.90
4520;DHT22;2272;49.226;8.108;2023-04-03T02:54:54;0.60;99.90
4520;DHT22;2272;49.226;8.108;2023-04-03T02:57:21;0.70;99.90
4520;DHT22;2272;49.226;8.108;2023-04-03T02:59:49;0.70;99.90
4520;DHT22;2272;49.226;8.108;2023-04-03T03:02:16;0.80;99.90
4520;DHT22;2272;49.226;8.108;2023-04-03T03:04:42;0.90;99.90
4520;DHT22;2272;49.226;8.108;2023-04-03T03:07:09;0.90;99.90
4520;DHT22;2272;49.226;8.108;2023-04-03T03:09:36;0.90;99.90
4520;DHT22;2272;49.226;8.108;2023-04-03T03:12:03;1.00;99.90
4520;DHT22;2272;49.226;8.108;2023-04-03T03:14:30;1.00;99.90
4520;DHT22;2272;49.226;8.108;2023-04-03T03:16:58;1.10;99.90
4520;DHT22;2272;49.226;8.108;2023-04-03T03:19:24;1.10;99.90
4520;DHT22;2272;49.226;8.108;2023-04-03T03:21:51;1.20;99.90
4520;DHT22;2272;49.226;8.108;2023-04-03T03:24:18;1.20;99.90
4520;DHT22;2272;49.226;8.108;2023-04-03T03:29:11;1.30;99.90
4520;DHT22;2272;49.226;8.108;2023-04-03T03:31:38;1.40;99.90
4520;DHT22;2272;49.226;8.108;2023-04-03T03:34:06;1.40;99.90
4520;DHT22;2272;49.226;8.108;2023-04-03T03:36:33;1.40;99.90
4520;DHT22;2272;49.226;8.108;2023-04-03T03:39:00;1.40;99.90
4520;DHT22;2272;49.226;8.108;2023-04-03T03:41:26;1.50;99.90
4520;DHT22;2272;49.226;8.108;2023-04-03T03:44:07;1.50;99.90
4520;DHT22;2272;49.226;8.108;2023-04-03T03:46:34;1.50;99.90
4520;DHT22;2272;49.226;8.108;2023-04-03T03:49:00;1.50;99.90
4520;DHT22;2272;49.226;8.108;2023-04-03T03:51:29;1.50;99.90
4520;DHT22;2272;49.226;8.108;2023-04-03T03:53:55;1.50;99.90
4520;DHT22;2272;49.226;8.108;2023-04-03T03:56:22;1.60;99.90
4520;DHT22;2272;49.226;8.108;2023-04-03T03:58:48;1.60;99.90
4520;DHT22;2272;49.226;8.108;2023-04-03T04:01:15;1.60;99.90
4520;DHT22;2272;49.226;8.108;2023-04-03T04:03:45;1.60;99.90
4520;DHT22;2272;49.226;8.108;2023-04-03T04:06:12;1.60;99.90
4520;DHT22;2272;49.226;8.108;2023-04-03T04:08:40;1.60;99.90
4520;DHT22;2272;49.226;8.108;2023-04-03T04:11:07;1.60;99.90
4520;DHT22;2272;49.226;8.108;2023-04-03T04:13:34;1.60;99.90
4520;DHT22;2272;49.226;8.108;2023-04-03T04:16:01;1.60;99.90
4520;DHT22;2272;49.226;8.108;2023-04-03T04:18:28;1.60;99.90
4520;DHT22;2272;49.226;8.108;2023-04-03T04:20:54;1.60;99.90
4520;DHT22;2272;49.226;8.108;2023-04-03T04:23:21;1.60;99.90
4520;DHT22;2272;49.226;8.108;2023-04-03T04:25:50;1.60;99.90
4520;DHT22;2272;49.226;8.108;2023-04-03T04:28:17;1.50;99.90
4520;DHT22;2272;49.226;8.108;2023-04-03T04:30:45;1.40;99.90
4520;DHT22;2272;49.226;8.108;2023-04-03T04:33:12;1.30;99.90
4520;DHT22;2272;49.226;8.108;2023-04-03T04:35:40;1.20;99.90
4520;DHT22;2272;49.226;8.108;2023-04-03T04:38:08;1.00;99.90
4520;DHT22;2272;49.226;8.108;2023-04-03T04:40:35;0.80;99.90
4520;DHT22;2272;49.226;8.108;2023-04-03T04:43:04;0.70;99.90
4520;DHT22;2272;49.226;8.108;2023-04-03T04:45:31;0.60;99.90
4520;DHT22;2272;49.226;8.108;2023-04-03T04:47:58;0.50;99.90
4520;DHT22;2272;49.226;8.108;2023-04-03T04:50:25;0.40;99.90
4520;DHT22;2272;49.226;8.108;2023-04-03T04:52:52;0.40;99.90
4520;DHT22;2272;49.226;8.108;2023-04-03T04:55:25;0.30;99.90
4520;DHT22;2272;49.226;8.108;2023-04-03T04:57:52;0.30;99.90
4520;DHT22;2272;49.226;8.108;2023-04-03T05:02:48;0.30;99.90
4520;DHT22;2272;49.226;8.108;2023-04-03T05:05:15;0.20;99.90
4520;DHT22;2272;49.226;8.108;2023-04-03T05:07:41;0.10;99.90
4520;DHT22;2272;49.226;8.108;2023-04-03T05:10:09;0.10;99.90
4520;DHT22;2272;49.226;8.108;2023-04-03T05:12:36;0.00;99.90
4520;DHT22;2272;49.226;8.108;2023-04-03T05:15:03;0.00;99.90
4520;DHT22;2272;49.226;8.108;2023-04-03T05:17:32;0.10;99.90
4520;DHT22;2272;49.226;8.108;2023-04-03T05:19:59;0.10;99.90
4520;DHT22;2272;49.226;8.108;2023-04-03T05:22:26;0.10;99.90
4520;DHT22;2272;49.226;8.108;2023-04-03T05:24:52;0.10;99.90
4520;DHT22;2272;49.226;8.108;2023-04-03T05:27:19;0.10;99.90
4520;DHT22;2272;49.226;8.108;2023-04-03T05:29:46;0.20;99.90
4520;DHT22;2272;49.226;8.108;2023-04-03T05:32:12;0.20;99.90
4520;DHT22;2272;49.226;8.108;2023-04-03T05:34:40;0.20;99.90
4520;DHT22;2272;49.226;8.108;2023-04-03T05:37:07;0.20;99.90
4520;DHT22;2272;49.226;8.108;2023-04-03T05:39:34;0.20;99.90
4520;DHT22;2272;49.226;8.108;2023-04-03T05:42:00;0.20;99.90
4520;DHT22;2272;49.226;8.108;2023-04-03T05:44:27;0.20;99.90
4520;DHT22;2272;49.226;8.108;2023-04-03T05:46:54;0.30;99.90
4520;DHT22;2272;49.226;8.108;2023-04-03T05:49:21;0.30;99.90
4520;DHT22;2272;49.226;8.108;2023-04-03T05:51:49;0.40;99.90
4520;DHT22;2272;49.226;8.108;2023-04-03T05:54:19;0.50;99.90
4520;DHT22;2272;49.226;8.108;2023-04-03T05:56:48;0.60;99.90
4520;DHT22;2272;49.226;8.108;2023-04-03T05:59:15;0.80;99.90
4520;DHT22;2272;49.226;8.108;2023-04-03T06:01:42;1.00;99.90
4520;DHT22;2272;49.226;8.108;2023-04-03T06:04:09;1.20;99.90
4520;DHT22;2272;49.226;8.108;2023-04-03T06:06:47;1.40;99.90
4520;DHT22;2272;49.226;8.108;2023-04-03T06:09:15;1.60;99.90
4520;DHT22;2272;49.226;8.108;2023-04-03T06:11:42;1.80;99.90
4520;DHT22;2272;49.226;8.108;2023-04-03T06:14:10;2.00;99.90
4520;DHT22;2272;49.226;8.108;2023-04-03T06:16:39;2.20;99.90
4520;DHT22;2272;49.226;8.108;2023-04-03T06:19:07;2.40;99.90
4520;DHT22;2272;49.226;8.108;2023-04-03T06:21:34;2.60;99.90
4520;DHT22;2272;49.226;8.108;2023-04-03T06:24:01;2.70;99.90
4520;DHT22;2272;49.226;8.108;2023-04-03T06:26:29;2.70;99.90
4520;DHT22;2272;49.226;8.108;2023-04-03T06:28:56;2.70;99.90
4520;DHT22;2272;49.226;8.108;2023-04-03T06:31:23;2.70;99.90
4520;DHT22;2272;49.226;8.108;2023-04-03T06:33:50;2.60;99.90
4520;DHT22;2272;49.226;8.108;2023-04-03T06:36:18;2.60;99.90
4520;DHT22;2272;49.226;8.108;2023-04-03T06:38:46;2.50;99.90
4520;DHT22;2272;49.226;8.108;2023-04-03T06:41:13;2.40;99.90
4520;DHT22;2272;49.226;8.108;2023-04-03T06:43:43;2.40;99.90
4520;DHT22;2272;49.226;8.108;2023-04-03T06:46:13;2.60;99.90
4520;DHT22;2272;49.226;8.108;2023-04-03T06:48:41;2.70;99.90
4520;DHT22;2272;49.226;8.108;2023-04-03T06:51:17;2.90;99.90
4520;DHT22;2272;49.226;8.108;2023-04-03T06:53:45;3.10;99.90
4520;DHT22;2272;49.226;8.108;2023-04-03T06:56:12;3.30;99.90
4520;DHT22;2272;49.226;8.108;2023-04-03T06:58:39;3.50;99.90
4520;DHT22;2272;49.226;8.108;2023-04-03T07:01:07;3.70;99.90
4520;DHT22;2272;49.226;8.108;2023-04-03T07:03:35;3.90;99.90
4520;DHT22;2272;49.226;8.108;2023-04-03T07:06:02;4.00;99.90
4520;DHT22;2272;49.226;8.108;2023-04-03T07:08:29;4.10;99.90
4520;DHT22;2272;49.226;8.108;2023-04-03T07:10:56;4.10;99.90
4520;DHT22;2272;49.226;8.108;2023-04-03T07:13:23;4.20;99.90
4520;DHT22;2272;49.226;8.108;2023-04-03T07:15:49;4.10;99.90
4520;DHT22;2272;49.226;8.108;2023-04-03T07:18:18;4.10;99.90
4520;DHT22;2272;49.226;8.108;2023-04-03T07:20:44;4.10;99.90
4520;DHT22;2272;49.226;8.108;2023-04-03T07:23:11;4.10;99.90
4520;DHT22;2272;49.226;8.108;2023-04-03T07:25:42;4.00;99.90
4520;DHT22;2272;49.226;8.108;2023-04-03T07:28:09;4.00;99.90
4520;DHT22;2272;49.226;8.108;2023-04-03T07:30:42;4.00;99.90
4520;DHT22;2272;49.226;8.108;2023-04-03T07:33:09;4.10;99.90
4520;DHT22;2272;49.226;8.108;2023-04-03T07:35:37;4.10;99.90
4520;DHT22;2272;49.226;8.108;2023-04-03T07:38:03;4.20;99.90
4520;DHT22;2272;49.226;8.108;2023-04-03T07:40:31;4.20;99.90
4520;DHT22;2272;49.226;8.108;2023-04-03T07:42:57;4.30;99.90
4520;DHT22;2272;49.226;8.108;2023-04-03T07:45:25;4.30;99.90
4520;DHT22;2272;49.226;8.108;2023-04-03T07:47:52;4.30;99.90
4520;DHT22;2272;49.226;8.108;2023-04-03T07:50:19;4.30;99.90
4520;DHT22;2272;49.226;8.108;2023-04-03T07:52:47;4.50;99.90
4520;DHT22;2272;49.226;8.108;2023-04-03T07:55:16;4.60;99.90
4520;DHT22;2272;49.226;8.108;2023-04-03T07:57:43;4.80;99.90
4520;DHT22;2272;49.226;8.108;2023-04-03T08:00:11;4.90;99.90
4520;DHT22;2272;49.226;8.108;2023-04-03T08:02:38;4.90;99.90
4520;DHT22;2272;49.226;8.108;2023-04-03T08:05:05;4.90;99.90
4520;DHT22;2272;49.226;8.108;2023-04-03T08:07:32;5.00;99.90
4520;DHT22;2272;49.226;8.108;2023-04-03T08:10:00;5.10;99.90
4520;DHT22;2272;49.226;8.108;2023-04-03T08:12:27;5.20;99.90
4520;DHT22;2272;49.226;8.108;2023-04-03T08:14:53;5.10;99.90
4520;DHT22;2272;49.226;8.108;2023-04-03T08:17:20;5.10;99.90
4520;DHT22;2272;49.226;8.108;2023-04-03T08:19:47;5.10;99.90
4520;DHT22;2272;49.226;8.108;2023-04-03T08:22:14;5.30;99.90
4520;DHT22;2272;49.226;8.108;2023-04-03T08:24:41;5.50;99.90
4520;DHT22;2272;49.226;8.108;2023-04-03T08:27:09;5.80;99.90
4520;DHT22;2272;49.226;8.108;2023-04-03T08:29:36;6.10;99.90
4520;DHT22;2272;49.226;8.108;2023-04-03T08:32:03;6.20;99.90
4520;DHT22;2272;49.226;8.108;2023-04-03T08:34:30;6.30;99.90
4520;DHT22;2272;49.226;8.108;2023-04-03T08:37:00;6.40;99.90
4520;DHT22;2272;49.226;8.108;2023-04-03T08:41:55;6.40;99.90
4520;DHT22;2272;49.226;8.108;2023-04-03T08:44:34;6.50;99.90
4520;DHT22;2272;49.226;8.108;2023-04-03T08:47:12;6.90;99.90
4520;DHT22;2272;49.226;8.108;2023-04-03T08:49:43;7.30;99.90
4520;DHT22;2272;49.226;8.108;2023-04-03T08:52:15;7.70;99.90
4520;DHT22;2272;49.226;8.108;2023-04-03T08:54:50;8.00;99.90
4520;DHT22;2272;49.226;8.108;2023-04-03T08:57:18;8.00;99.90
4520;DHT22;2272;49.226;8.108;2023-04-03T08:59:48;7.80;99.90
4520;DHT22;2272;49.226;8.108;2023-04-03T09:02:24;8.10;99.90
4520;DHT22;2272;49.226;8.108;2023-04-03T09:04:52;8.40;99.90
4520;DHT22;2272;49.226;8.108;2023-04-03T09:07:23;8.30;99.90
4520;DHT22;2272;49.226;8.108;2023-04-03T09:09:51;8.10;99.90
4520;DHT22;2272;49.226;8.108;2023-04-03T09:12:22;7.90;99.90
4520;DHT22;2272;49.226;8.108;2023-04-03T09:14:59;8.00;99.90
4520;DHT22;2272;49.226;8.108;2023-04-03T09:17:38;7.90;99.90
4520;DHT22;2272;49.226;8.108;2023-04-03T09:20:16;7.90;99.90
4520;DHT22;2272;49.226;8.108;2023-04-03T09:22:44;8.10;99.90
4520;DHT22;2272;49.226;8.108;2023-04-03T09:25:14;8.20;99.90
4520;DHT22;2272;49.226;8.108;2023-04-03T09:27:42;8.30;99.90
4520;DHT22;2272;49.226;8.108;2023-04-03T09:30:15;8.50;99.90
4520;DHT22;2272;49.226;8.108;2023-04-03T09:32:45;8.90;99.90
4520;DHT22;2272;49.226;8.108;2023-04-03T09:35:20;9.40;99.90
4520;DHT22;2272;49.226;8.108;2023-04-03T09:37:48;9.50;99.90
4520;DHT22;2272;49.226;8.108;2023-04-03T09:40:30;9.20;99.90
4520;DHT22;2272;49.226;8.108;2023-04-03T09:43:02;9.10;99.90
4520;DHT22;2272;49.226;8.108;2023-04-03T09:45:32;9.50;99.90
4520;DHT22;2272;49.226;8.108;2023-04-03T09:48:15;9.70;99.90
4520;DHT22;2272;49.226;8.108;2023-04-03T09:50:53;9.70;99.90
4520;DHT22;2272;49.226;8.108;2023-04-03T09:53:29;9.90;99.90
4520;DHT22;2272;49.226;8.108;2023-04-03T09:55:57;10.10;99.90
4520;DHT22;2272;49.226;8.108;2023-04-03T09:58:27;10.00;99.90
4520;DHT22;2272;49.226;8.108;2023-04-03T10:00:57;9.80;99.90
4520;DHT22;2272;49.226;8.108;2023-04-03T10:03:27;9.80;99.90
4520;DHT22;2272;49.226;8.108;2023-04-03T10:05:54;9.90;99.90
4520;DHT22;2272;49.226;8.108;2023-04-03T10:08:26;9.80;99.90
4520;DHT22;2272;49.226;8.108;2023-04-03T10:11:11;9.70;99.90
4520;DHT22;2272;49.226;8.108;2023-04-03T10:13:50;9.60;99.90
4520;DHT22;2272;49.226;8.108;2023-04-03T10:16:22;9.40;99.90
4520;DHT22;2272;49.226;8.108;2023-04-03T10:19:02;9.20;99.90
4520;DHT22;2272;49.226;8.108;2023-04-03T10:21:35;9.20;99.90
4520;DHT22;2272;49.226;8.108;2023-04-03T10:24:11;9.10;99.90
4520;DHT22;2272;49.226;8.108;2023-04-03T10:26:46;9.00;99.90
4520;DHT22;2272;49.226;8.108;2023-04-03T10:29:32;9.00;99.90
4520;DHT22;2272;49.226;8.108;2023-04-03T10:32:17;8.90;99.90
4520;DHT22;2272;49.226;8.108;2023-04-03T10:34:56;8.80;99.90
4520;DHT22;2272;49.226;8.108;2023-04-03T10:37:26;8.80;99.90
4520;DHT22;2272;49.226;8.108;2023-04-03T10:40:05;9.10;99.90
4520;DHT22;2272;49.226;8.108;2023-04-03T10:42:42;9.20;99.90
4520;DHT22;2272;49.226;8.108;2023-04-03T10:45:25;9.10;99.90
4520;DHT22;2272;49.226;8.108;2023-04-03T10:48:01;9.00;99.90
4520;DHT22;2272;49.226;8.108;2023-04-03T10:50:38;9.10;99.90
4520;DHT22;2272;49.226;8.108;2023-04-03T10:53:13;9.20;99.90
4520;DHT22;2272;49.226;8.108;2023-04-03T10:55:48;9.40;99.90
4520;DHT22;2272;49.226;8.108;2023-04-03T10:58:26;9.70;99.90
4520;DHT22;2272;49.226;8.108;2023-04-03T11:00:57;9.90;99.90
4520;DHT22;2272;49.226;8.108;2023-04-03T11:03:30;10.10;99.90
4520;DHT22;2272;49.226;8.108;2023-04-03T11:06:01;10.30;99.90
4520;DHT22;2272;49.226;8.108;2023-04-03T11:08:33;10.60;99.50
4520;DHT22;2272;49.226;8.108;2023-04-03T11:11:04;11.00;99.90
4520;DHT22;2272;49.226;8.108;2023-04-03T11:13:34;11.20;99.50
4520;DHT22;2272;49.226;8.108;2023-04-03T11:16:03;11.00;99.00
4520;DHT22;2272;49.226;8.108;2023-04-03T11:18:37;10.80;99.20
4520;DHT22;2272;49.226;8.108;2023-04-03T11:21:11;10.60;99.20
4520;DHT22;2272;49.226;8.108;2023-04-03T11:23:39;10.40;99.50
4520;DHT22;2272;49.226;8.108;2023-04-03T11:26:11;10.30;98.80
4520;DHT22;2272;49.226;8.108;2023-04-03T11:28:38;10.10;98.30
4520;DHT22;2272;49.226;8.108;2023-04-03T11:31:18;9.90;99.10
4520;DHT22;2272;49.226;8.108;2023-04-03T11:33:55;10.00;98.50
4520;DHT22;2272;49.226;8.108;2023-04-03T11:36:27;9.90;99.50
4520;DHT22;2272;49.226;8.108;2023-04-03T11:38:58;9.90;99.90
4520;DHT22;2272;49.226;8.108;2023-04-03T11:41:29;10.30;99.80
4520;DHT22;2272;49.226;8.108;2023-04-03T11:43:59;10.50;98.00
4520;DHT22;2272;49.226;8.108;2023-04-03T11:46:49;10.60;97.80
4520;DHT22;2272;49.226;8.108;2023-04-03T11:52:58;10.30;97.20
4520;DHT22;2272;49.226;8.108;2023-04-03T11:55:59;10.20;96.50
4520;DHT22;2272;49.226;8.108;2023-04-03T11:58:28;9.90;97.20
4520;DHT22;2272;49.226;8.108;2023-04-03T12:00:59;9.90;97.70
4520;DHT22;2272;49.226;8.108;2023-04-03T12:03:57;10.00;97.10
4520;DHT22;2272;49.226;8.108;2023-04-03T12:06:53;9.90;97.10
4520;DHT22;2272;49.226;8.108;2023-04-03T12:09:33;9.70;97.30
4520;DHT22;2272;49.226;8.108;2023-04-03T12:12:27;9.70;97.90
4520;DHT22;2272;49.226;8.108;2023-04-03T12:14:48;9.70;98.00
4520;DHT22;2272;49.226;8.108;2023-04-03T12:17:21;9.90;97.90
4520;DHT22;2272;49.226;8.108;2023-04-03T12:19:49;10.10;96.50
4520;DHT22;2272;49.226;8.108;2023-04-03T12:22:17;10.10;96.40
4520;DHT22;2272;49.226;8.108;2023-04-03T12:24:48;10.00;95.80
4520;DHT22;2272;49.226;8.108;2023-04-03T12:27:28;9.80;96.90
4520;DHT22;2272;49.226;8.108;2023-04-03T12:30:04;9.80;97.10
4520;DHT22;2272;49.226;8.108;2023-04-03T12:32:58;9.90;96.90
4520;DHT22;2272;49.226;8.108;2023-04-03T12:35:30;9.90;97.50
4520;DHT22;2272;49.226;8.108;2023-04-03T12:38:23;9.80;98.40
4520;DHT22;2272;49.226;8.108;2023-04-03T12:41:11;9.90;97.70
4520;DHT22;2272;49.226;8.108;2023-04-03T12:43:50;10.00;96.80
4520;DHT22;2272;49.226;8.108;2023-04-03T12:46:22;10.20;96.50
4520;DHT22;2272;49.226;8.108;2023-04-03T12:48:51;10.40;95.90
4520;DHT22;2272;49.226;8.108;2023-04-03T12:51:21;10.50;95.80
4520;DHT22;2272;49.226;8.108;2023-04-03T12:53:50;10.50;95.30
4520;DHT22;2272;49.226;8.108;2023-04-03T12:56:21;10.40;96.20
4520;DHT22;2272;49.226;8.108;2023-04-03T12:58:49;10.40;96.40
4520;DHT22;2272;49.226;8.108;2023-04-03T13:01:18;10.30;96.30
4520;DHT22;2272;49.226;8.108;2023-04-03T13:03:48;10.20;95.30
4520;DHT22;2272;49.226;8.108;2023-04-03T13:06:18;10.20;96.00
4520;DHT22;2272;49.226;8.108;2023-04-03T13:08:50;10.40;96.40
4520;DHT22;2272;49.226;8.108;2023-04-03T13:11:20;10.40;95.20
4520;DHT22;2272;49.226;8.108;2023-04-03T13:13:58;10.20;95.00
4520;DHT22;2272;49.226;8.108;2023-04-03T13:16:25;10.20;95.10
4520;DHT22;2272;49.226;8.108;2023-04-03T13:18:54;10.20;95.00
4520;DHT22;2272;49.226;8.108;2023-04-03T13:21:24;10.30;94.80
4520;DHT22;2272;49.226;8.108;2023-04-03T13:23:53;10.30;95.80
4520;DHT22;2272;49.226;8.108;2023-04-03T13:26:25;10.40;94.50
4520;DHT22;2272;49.226;8.108;2023-04-03T13:28:55;10.50;94.80
4520;DHT22;2272;49.226;8.108;2023-04-03T13:31:27;10.60;94.70
4520;DHT22;2272;49.226;8.108;2023-04-03T13:33:57;10.80;94.50
4520;DHT22;2272;49.226;8.108;2023-04-03T13:36:28;10.90;94.20
4520;DHT22;2272;49.226;8.108;2023-04-03T13:39:01;10.70;94.50
4520;DHT22;2272;49.226;8.108;2023-04-03T13:41:31;10.60;94.00
4520;DHT22;2272;49.226;8.108;2023-04-03T13:44:27;10.50;94.70
4520;DHT22;2272;49.226;8.108;2023-04-03T13:46:56;10.20;94.60
4520;DHT22;2272;49.226;8.108;2023-04-03T13:49:32;9.90;95.00
4520;DHT22;2272;49.226;8.108;2023-04-03T13:52:00;9.70;96.60
4520;DHT22;2272;49.226;8.108;2023-04-03T13:54:31;9.90;96.60
4520;DHT22;2272;49.226;8.108;2023-04-03T13:57:01;10.40;95.80
4520;DHT22;2272;49.226;8.108;2023-04-03T13:59:30;10.80;94.40
4520;DHT22;2272;49.226;8.108;2023-04-03T14:02:13;10.90;94.10
4520;DHT22;2272;49.226;8.108;2023-04-03T14:04:52;11.20;93.90
4520;DHT22;2272;49.226;8.108;2023-04-03T14:07:22;11.40;92.90
4520;DHT22;2272;49.226;8.108;2023-04-03T14:09:49;11.10;92.00
4520;DHT22;2272;49.226;8.108;2023-04-03T14:12:19;10.80;92.40
4520;DHT22;2272;49.226;8.108;2023-04-03T14:14:48;10.40;92.90
4520;DHT22;2272;49.226;8.108;2023-04-03T14:17:17;10.00;93.40
4520;DHT22;2272;49.226;8.108;2023-04-03T14:19:44;9.60;95.20
4520;DHT22;2272;49.226;8.108;2023-04-03T14:22:15;9.50;94.80
4520;DHT22;2272;49.226;8.108;2023-04-03T14:24:43;9.60;93.40
4520;DHT22;2272;49.226;8.108;2023-04-03T14:27:16;9.90;93.60
4520;DHT22;2272;49.226;8.108;2023-04-03T14:29:45;10.00;92.30
4520;DHT22;2272;49.226;8.108;2023-04-03T14:32:13;9.90;93.50
4520;DHT22;2272;49.226;8.108;2023-04-03T14:34:41;10.10;93.30
4520;DHT22;2272;49.226;8.108;2023-04-03T14:37:11;10.30;93.60
4520;DHT22;2272;49.226;8.108;2023-04-03T14:39:38;10.50;93.80
4520;DHT22;2272;49.226;8.108;2023-04-03T14:42:05;10.50;92.20
4520;DHT22;2272;49.226;8.108;2023-04-03T14:44:32;10.50;92.20
4520;DHT22;2272;49.226;8.108;2023-04-03T14:47:00;10.40;93.30
4520;DHT22;2272;49.226;8.108;2023-04-03T14:49:28;10.30;92.60
4520;DHT22;2272;49.226;8.108;2023-04-03T14:51:55;10.20;93.70
4520;DHT22;2272;49.226;8.108;2023-04-03T14:54:23;10.00;94.40
4520;DHT22;2272;49.226;8.108;2023-04-03T14:56:53;9.80;94.40
4520;DHT22;2272;49.226;8.108;2023-04-03T14:59:21;9.50;95.50
4520;DHT22;2272;49.226;8.108;2023-04-03T15:01:48;9.20;94.50
4520;DHT22;2272;49.226;8.108;2023-04-03T15:04:17;8.80;94.80
4520;DHT22;2272;49.226;8.108;2023-04-03T15:06:46;8.60;94.90
4520;DHT22;2272;49.226;8.108;2023-04-03T15:09:19;8.90;95.90
4520;DHT22;2272;49.226;8.108;2023-04-03T15:11:47;9.30;94.30
4520;DHT22;2272;49.226;8.108;2023-04-03T15:14:16;9.60;94.00
4520;DHT22;2272;49.226;8.108;2023-04-03T15:16:43;10.10;92.20
4520;DHT22;2272;49.226;8.108;2023-04-03T15:19:10;10.30;92.60
4520;DHT22;2272;49.226;8.108;2023-04-03T15:21:39;10.50;91.70
4520;DHT22;2272;49.226;8.108;2023-04-03T15:24:06;10.40;91.80
4520;DHT22;2272;49.226;8.108;2023-04-03T15:26:33;10.10;92.90
4520;DHT22;2272;49.226;8.108;2023-04-03T15:29:00;9.70;93.50
4520;DHT22;2272;49.226;8.108;2023-04-03T15:31:27;9.40;93.70
4520;DHT22;2272;49.226;8.108;2023-04-03T15:33:54;9.20;94.30
4520;DHT22;2272;49.226;8.108;2023-04-03T15:36:21;9.20;94.40
4520;DHT22;2272;49.226;8.108;2023-04-03T15:38:49;9.50;93.60
4520;DHT22;2272;49.226;8.108;2023-04-03T15:41:15;9.80;92.80
4520;DHT22;2272;49.226;8.108;2023-04-03T15:43:42;10.00;91.90
4520;DHT22;2272;49.226;8.108;2023-04-03T15:46:09;10.00;92.20
4520;DHT22;2272;49.226;8.108;2023-04-03T15:48:36;9.90;93.10
4520;DHT22;2272;49.226;8.108;2023-04-03T15:51:04;9.90;94.00
4520;DHT22;2272;49.226;8.108;2023-04-03T15:53:31;9.80;93.20
4520;DHT22;2272;49.226;8.108;2023-04-03T15:55:59;9.70;93.60
4520;DHT22;2272;49.226;8.108;2023-04-03T15:58:26;9.50;93.10
4520;DHT22;2272;49.226;8.108;2023-04-03T16:00:53;9.20;92.50
4520;DHT22;2272;49.226;8.108;2023-04-03T16:03:20;8.90;93.20
4520;DHT22;2272;49.226;8.108;2023-04-03T16:05:48;8.60;94.10
4520;DHT22;2272;49.226;8.108;2023-04-03T16:08:15;8.30;93.90
4520;DHT22;2272;49.226;8.108;2023-04-03T16:10:43;8.20;94.40
4520;DHT22;2272;49.226;8.108;2023-04-03T16:13:12;8.10;94.60
4520;DHT22;2272;49.226;8.108;2023-04-03T16:15:45;8.10;94.50
4520;DHT22;2272;49.226;8.108;2023-04-03T16:18:14;8.20;93.70
4520;DHT22;2272;49.226;8.108;2023-04-03T16:20:40;8.40;93.90
4520;DHT22;2272;49.226;8.108;2023-04-03T16:23:11;8.60;94.50
4520;DHT22;2272;49.226;8.108;2023-04-03T16:25:38;8.80;94.10
4520;DHT22;2272;49.226;8.108;2023-04-03T16:28:23;8.80;93.50
4520;DHT22;2272;49.226;8.108;2023-04-03T16:30:50;8.50;92.60
4520;DHT22;2272;49.226;8.108;2023-04-03T16:33:21;8.30;92.80
4520;DHT22;2272;49.226;8.108;2023-04-03T16:35:49;8.10;92.60
4520;DHT22;2272;49.226;8.108;2023-04-03T16:38:17;8.10;92.50
4520;DHT22;2272;49.226;8.108;2023-04-03T16:40:45;8.00;92.50
4520;DHT22;2272;49.226;8.108;2023-04-03T16:43:12;7.90;92.10
4520;DHT22;2272;49.226;8.108;2023-04-03T16:45:43;7.90;92.90
4520;DHT22;2272;49.226;8.108;2023-04-03T16:48:13;7.90;92.50
4520;DHT22;2272;49.226;8.108;2023-04-03T16:50:46;8.00;92.90